Time;durP1;ratioP1;P1;durP2;ratioP2;P2;SDS_P1;SDS_P2;PMS_P1;PMS_P2;Temp;Humidity;BMP_temperature;BMP_pressure;BME280_temperature;BME280_humidity;BME280_pressure;Samples;Min_cycle;Max_cycle;Signal;HPM_P1;HPM_P2
2021/04/15 00:01:16;;;;;;;41.98;23.38;;;;;;;8.97;70.34;99755.08;1783061;80;21479;-77
2021/04/15 00:03:45;;;;;;;46.68;24.23;;;;;;;8.96;70.93;99750.72;1782797;79;21175;-76
2021/04/15 00:06:19;;;;;;;50.55;24.37;;;;;;;8.94;70.13;99752.55;1782879;80;21138;-77
2021/04/15 00:08:49;;;;;;;45.20;24.47;;;;;;;8.91;69.29;99753.13;1782742;80;21229;-75
2021/04/15 00:11:20;;;;;;;41.35;21.73;;;;;;;8.88;69.97;99751.91;1783121;79;21174;-75
2021/04/15 00:13:53;;;;;;;32.10;19.77;;;;;;;8.85;70.29;99752.88;1782706;80;21198;-76
2021/04/15 00:16:23;;;;;;;37.03;20.62;;;;;;;8.81;70.48;99751.27;1783021;79;21253;-78
2021/04/15 00:18:54;;;;;;;49.60;21.20;;;;;;;8.78;70.89;99750.08;1782963;80;27136;-78
2021/04/15 00:21:24;;;;;;;32.97;18.03;;;;;;;8.76;70.79;99750.58;1783160;80;21202;-79
2021/04/15 00:23:52;;;;;;;36.58;20.15;;;;;;;8.72;70.95;99747.66;1782819;80;21185;-79
2021/04/15 00:26:21;;;;;;;37.60;20.68;;;;;;;8.69;70.67;99743.84;1782943;79;21419;-79
2021/04/15 00:28:52;;;;;;;37.08;21.23;;;;;;;8.67;70.71;99741.72;1782869;79;21153;-79
2021/04/15 00:31:20;;;;;;;39.27;22.22;;;;;;;8.64;71.63;99736.13;1783250;80;21252;-79
2021/04/15 00:33:49;;;;;;;39.45;22.60;;;;;;;8.64;72.37;99739.22;1782802;80;21166;-79
2021/04/15 00:36:20;;;;;;;50.90;26.00;;;;;;;8.63;72.05;99736.17;1783205;80;21178;-80
2021/04/15 00:38:49;;;;;;;50.40;25.75;;;;;;;8.57;70.85;99735.48;1783098;79;21832;-79
2021/04/15 00:41:17;;;;;;;43.02;24.98;;;;;;;8.55;71.86;99742.55;1794725;79;21185;-81
2021/04/15 00:43:45;;;;;;;44.70;24.80;;;;;;;8.51;70.98;99733.52;1797302;79;21173;-79
2021/04/15 00:46:43;;;;;;;42.25;24.85;;;;;;;8.46;71.67;99734.14;1797390;79;21210;-80
2021/04/15 00:49:21;;;;;;;43.87;23.02;;;;;;;8.40;70.78;99735.23;1797486;79;21214;-79
2021/04/15 00:51:54;;;;;;;39.38;20.08;;;;;;;8.33;70.53;99738.95;1796582;79;21582;-80
2021/04/15 00:54:38;;;;;;;35.48;19.77;;;;;;;8.28;70.32;99743.47;1797537;79;21122;-80
2021/04/15 00:57:17;;;;;;;36.45;20.10;;;;;;;8.22;70.45;99741.06;1797556;79;21432;-80
2021/04/15 00:59:47;;;;;;;39.05;22.52;;;;;;;8.16;70.88;99739.48;1797149;79;21693;-79
2021/04/15 01:02:19;;;;;;;40.75;23.35;;;;;;;8.14;71.47;99740.88;1791513;80;21182;-76
2021/04/15 01:04:51;;;;;;;51.23;25.82;;;;;;;8.14;72.25;99744.81;1791369;80;21204;-78
2021/04/15 01:07:21;;;;;;;50.58;27.90;;;;;;;8.12;72.95;99741.80;1791304;80;21222;-75
2021/04/15 01:09:52;;;;;;;44.63;24.90;;;;;;;8.10;72.61;99739.72;1791268;80;21203;-76
2021/04/15 01:13:16;;;;;;;37.10;21.40;;;;;;;8.08;72.42;99738.45;1765162;80;21240;-75
2021/04/15 01:16:02;;;;;;;48.83;25.75;;;;;;;8.08;72.23;99739.75;1790816;80;21201;-78
2021/04/15 01:18:52;;;;;;;41.50;23.07;;;;;;;8.09;73.80;99732.28;1791228;80;21991;-79
2021/04/15 01:22:02;;;;;;;43.40;22.52;;;;;;;8.12;73.80;99732.20;1789595;80;21206;-78
2021/04/15 01:24:55;;;;;;;44.00;24.90;;;;;;;8.12;73.80;99728.69;1791040;80;21182;-77
2021/04/15 01:27:54;;;;;;;62.70;30.50;;;;;;;8.12;74.60;99726.95;1710843;79;22467;-77
2021/04/15 01:30:31;;;;;;;51.75;28.50;;;;;;;8.14;74.83;99721.63;1797299;79;22217;-75
2021/04/15 01:33:38;;;;;;;49.65;27.05;;;;;;;8.15;73.95;99729.46;1796952;79;21993;-75
2021/04/15 01:36:15;;;;;;;55.38;27.75;;;;;;;8.13;73.45;99729.96;1796807;79;21241;-76
2021/04/15 01:38:52;;;;;;;51.00;26.55;;;;;;;8.09;73.04;99729.66;1796281;79;21181;-76
2021/04/15 01:41:38;;;;;;;43.17;25.10;;;;;;;8.06;73.07;99730.23;1796632;79;21185;-74
2021/04/15 01:44:22;;;;;;;51.77;24.50;;;;;;;8.04;73.96;99728.95;1797097;79;21614;-75
2021/04/15 01:46:50;;;;;;;44.18;25.97;;;;;;;8.05;74.09;99720.63;1787768;79;21374;-73
2021/04/15 01:49:19;;;;;;;37.50;21.35;;;;;;;8.05;74.16;99722.82;1797068;79;21225;-75
2021/04/15 01:51:49;;;;;;;46.33;23.95;;;;;;;8.06;74.28;99722.36;1754472;80;21174;-74
2021/04/15 01:54:41;;;;;;;47.93;26.85;;;;;;;8.05;73.99;99716.27;1778433;80;21194;-74
2021/04/15 01:57:26;;;;;;;38.00;20.17;;;;;;;8.06;73.84;99712.72;1778273;80;21139;-74
2021/04/15 02:00:01;;;;;;;54.00;28.35;;;;;;;8.05;74.81;99714.95;1778526;80;22091;-73
2021/04/15 02:02:37;;;;;;;46.08;23.45;;;;;;;8.03;75.20;99711.52;1778457;80;21166;-76
2021/04/15 02:05:26;;;;;;;42.38;24.20;;;;;;;8.03;75.54;99714.58;1778443;80;21135;-74
2021/04/15 02:08:15;;;;;;;41.48;22.77;;;;;;;8.01;75.67;99718.58;1764691;80;21243;-74
2021/04/15 02:10:51;;;;;;;35.60;22.25;;;;;;;7.95;75.84;99713.52;1778379;80;21178;-75
2021/04/15 02:13:19;;;;;;;43.17;25.80;;;;;;;7.91;76.32;99715.84;1778454;80;21360;-74
2021/04/15 02:15:53;;;;;;;35.92;22.40;;;;;;;7.87;76.82;99711.63;1778166;80;21672;-75
2021/04/15 02:18:55;;;;;;;47.58;26.93;;;;;;;7.82;76.79;99709.58;1778334;80;21179;-74
2021/04/15 02:21:39;;;;;;;51.85;27.82;;;;;;;7.78;76.95;99711.00;1777947;80;21237;-74
2021/04/15 02:24:14;;;;;;;43.17;23.15;;;;;;;7.74;76.92;99705.45;1778326;80;21457;-76
2021/04/15 02:26:42;;;;;;;42.08;22.90;;;;;;;7.72;76.38;99708.56;1745297;81;21451;-75
2021/04/15 02:29:25;;;;;;;38.23;21.82;;;;;;;7.72;76.43;99705.09;1747511;82;21198;-74
2021/04/15 02:31:57;;;;;;;43.83;22.52;;;;;;;7.71;76.40;99704.25;1695011;84;21677;-74
2021/04/15 02:34:37;;;;;;;41.40;22.40;;;;;;;7.69;76.92;99705.20;1694941;84;21205;-76
2021/04/15 02:37:19;;;;;;;48.13;25.68;;;;;;;7.65;77.38;99708.36;1695073;84;21183;-75
2021/04/15 02:39:54;;;;;;;45.92;25.68;;;;;;;7.65;77.76;99709.67;1694895;84;22297;-76
2021/04/15 02:42:27;;;;;;;43.75;24.23;;;;;;;7.64;76.84;99707.97;1696229;83;21692;-76
2021/04/15 02:45:01;;;;;;;41.53;22.80;;;;;;;7.62;76.37;99708.47;1732100;82;21564;-77
2021/04/15 02:47:39;;;;;;;43.05;22.90;;;;;;;7.62;76.88;99703.23;1731149;82;21231;-77
2021/04/15 02:50:08;;;;;;;34.88;19.02;;;;;;;7.62;76.83;99700.61;1728272;82;21688;-75
2021/04/15 02:52:39;;;;;;;33.75;19.27;;;;;;;7.63;77.10;99698.84;1731133;82;21382;-74
2021/04/15 02:55:11;;;;;;;40.25;22.35;;;;;;;7.62;77.25;99697.98;1731192;82;21187;-76
2021/04/15 02:57:48;;;;;;;35.52;20.72;;;;;;;7.61;77.38;99691.02;1731203;82;22353;-77
2021/04/15 03:00:24;;;;;;;47.50;25.57;;;;;;;7.58;77.55;99696.36;1731349;82;21158;-75
2021/04/15 03:03:11;;;;;;;45.08;26.65;;;;;;;7.52;77.50;99695.23;1731139;82;21182;-74
2021/04/15 03:05:49;;;;;;;50.15;26.20;;;;;;;7.51;77.47;99693.08;1731208;82;21199;-76
2021/04/15 03:08:23;;;;;;;47.83;26.55;;;;;;;7.50;77.80;99698.36;1731055;82;21215;-74
2021/04/15 03:10:59;;;;;;;43.38;23.77;;;;;;;7.49;77.69;99700.58;1731027;82;21696;-75
2021/04/15 03:13:43;;;;;;;32.63;19.85;;;;;;;7.49;77.86;99700.58;1729487;82;21242;-75
2021/04/15 03:16:11;;;;;;;38.65;20.52;;;;;;;7.46;77.93;99695.45;1731249;82;21187;-75
2021/04/15 03:18:45;;;;;;;36.98;20.08;;;;;;;7.46;78.33;99700.69;1700506;82;21536;-74
2021/04/15 03:21:24;;;;;;;43.52;24.30;;;;;;;7.46;78.42;99703.31;1731133;82;21218;-72
2021/04/15 03:24:03;;;;;;;;;;;;;;;7.46;78.91;99706.78;1733715;82;21779;-72
2021/04/15 03:27:07;;;;;;;53.92;26.55;;;;;;;7.45;79.31;99698.50;1728000;82;20302;-73
2021/04/15 03:29:43;;;;;;;38.88;21.40;;;;;;;7.47;79.25;99699.31;1757068;81;21191;-74
2021/04/15 03:32:22;;;;;;;42.05;23.62;;;;;;;7.51;78.75;99696.16;1756863;81;21369;-73
2021/04/15 03:35:22;;;;;;;35.20;19.65;;;;;;;7.56;78.81;99696.86;1756905;81;21203;-73
2021/04/15 03:38:04;;;;;;;48.98;26.52;;;;;;;7.72;78.73;99688.91;1755090;80;21206;-77
2021/04/15 03:40:33;;;;;;;46.85;25.20;;;;;;;7.98;78.43;99687.19;1751916;80;21143;-78
2021/04/15 03:43:12;;;;;;;51.20;27.60;;;;;;;8.19;77.69;99685.17;1751981;80;21171;-77
2021/04/15 03:45:55;;;;;;;43.08;25.57;;;;;;;8.32;77.15;99687.36;1752247;81;21372;-76
2021/04/15 03:48:29;;;;;;;43.70;23.30;;;;;;;8.45;76.00;99693.09;1758494;80;21210;-74
2021/04/15 03:51:12;;;;;;;48.25;26.15;;;;;;;8.65;75.41;99694.55;1765233;80;21629;-75
2021/04/15 03:53:59;;;;;;;48.58;26.97;;;;;;;8.88;74.56;99695.02;1785496;80;21218;-78
2021/04/15 03:56:40;;;;;;;48.08;27.70;;;;;;;9.15;74.22;99694.88;1773628;80;21190;-79
2021/04/15 03:59:25;;;;;;;49.40;29.23;;;;;;;9.37;73.51;99701.03;1783262;80;22494;-80
2021/04/15 04:01:55;;;;;;;51.20;29.87;;;;;;;9.52;72.45;99705.28;1768508;80;21214;-79
2021/04/15 04:04:33;;;;;;;54.08;30.15;;;;;;;9.47;71.26;99703.30;1778009;80;21263;-80
2021/04/15 04:07:06;;;;;;;53.75;28.98;;;;;;;9.35;70.99;99702.86;1778513;80;21170;-79
2021/04/15 04:09:40;;;;;;;50.08;25.45;;;;;;;9.24;71.62;99702.41;1772374;80;21122;-78
2021/04/15 04:12:12;;;;;;;45.08;25.32;;;;;;;9.16;72.11;99709.75;1764930;80;21373;-80
2021/04/15 04:14:56;;;;;;;46.58;24.98;;;;;;;9.07;72.31;99715.34;1751618;81;21213;-78
2021/04/15 04:17:38;;;;;;;47.25;24.50;;;;;;;8.99;72.99;99708.58;1751785;81;21188;-78
2021/04/15 04:20:08;;;;;;;44.40;26.02;;;;;;;8.95;73.58;99714.88;1722598;81;21178;-77
2021/04/15 04:22:55;;;;;;;47.35;26.93;;;;;;;8.91;72.88;99715.91;1762646;80;21138;-78
2021/04/15 04:25:32;;;;;;;46.48;26.77;;;;;;;8.92;73.18;99722.86;1762995;80;21412;-78
2021/04/15 04:28:24;;;;;;;52.38;27.42;;;;;;;8.89;72.91;99715.10;1742457;81;21182;-78
2021/04/15 04:31:06;;;;;;;48.28;24.40;;;;;;;8.91;72.83;99721.16;1760359;80;21190;-78
2021/04/15 04:33:39;;;;;;;52.58;25.45;;;;;;;8.92;73.47;99714.98;1741750;81;21226;-80
2021/04/15 04:36:09;;;;;;;48.40;28.87;;;;;;;8.93;74.16;99714.08;1752308;81;21746;-79
2021/04/15 04:38:38;;;;;;;47.20;26.95;;;;;;;8.96;73.15;99719.21;1766518;80;21338;-80
2021/04/15 04:41:14;;;;;;;52.45;28.75;;;;;;;8.98;72.91;99710.82;1783114;79;21101;-79
2021/04/15 04:43:52;;;;;;;50.03;28.10;;;;;;;9.00;72.08;99718.19;1781583;80;21217;-79
2021/04/15 04:47:06;;;;;;;50.40;28.52;;;;;;;9.04;73.00;99716.28;1782075;80;21780;-79
2021/04/15 04:49:41;;;;;;;54.40;29.10;;;;;;;9.06;72.73;99714.47;1738476;82;21223;-79
2021/04/15 04:52:19;;;;;;;51.30;31.40;;;;;;;9.07;72.17;99716.20;1741246;81;21659;-79
2021/04/15 04:54:47;;;;;;;49.83;30.27;;;;;;;9.07;71.87;99717.51;1737741;81;21239;-79
2021/04/15 04:57:39;;;;;;;43.20;27.27;;;;;;;9.11;71.71;99715.17;1738441;82;21195;-79
2021/04/15 05:00:13;;;;;;;41.95;25.80;;;;;;;9.14;72.52;99711.57;1733859;81;21192;-77
2021/04/15 05:02:42;;;;;;;44.23;26.40;;;;;;;9.21;72.22;99713.05;1739312;81;21168;-79
2021/04/15 05:05:24;;;;;;;48.13;27.62;;;;;;;9.28;71.79;99704.02;1738632;81;21431;-79
2021/04/15 05:08:03;;;;;;;49.77;26.30;;;;;;;9.35;71.13;99708.11;1746773;81;21234;-79
2021/04/15 05:10:31;;;;;;;44.40;24.12;;;;;;;9.42;70.81;99706.95;1740440;81;21192;-79
2021/04/15 05:13:17;;;;;;;39.18;23.80;;;;;;;9.53;70.45;99712.27;1759206;81;21184;-79
2021/04/15 05:15:46;;;;;;;45.38;23.52;;;;;;;9.62;69.95;99717.16;1737168;81;21707;-79
2021/04/15 05:18:17;;;;;;;44.93;26.73;;;;;;;9.68;69.71;99719.52;1737772;82;21751;-80
2021/04/15 05:20:46;;;;;;;43.10;26.07;;;;;;;9.73;69.80;99716.71;1709932;83;21209;-78
2021/04/15 05:23:22;;;;;;;43.65;24.77;;;;;;;9.78;70.08;99713.00;1743439;81;21178;-78
2021/04/15 05:26:20;;;;;;;44.58;25.90;;;;;;;9.89;69.92;99719.11;1713861;82;21593;-78
2021/04/15 05:28:51;;;;;;;45.10;27.15;;;;;;;9.95;69.44;99711.45;1678392;85;21185;-79
2021/04/15 05:31:21;;;;;;;56.23;29.02;;;;;;;10.03;69.29;99713.28;1743452;80;22045;-80
2021/04/15 05:33:49;;;;;;;41.53;25.05;;;;;;;10.08;69.23;99713.98;1716628;83;21196;-79
2021/04/15 05:36:36;;;;;;;46.95;25.25;;;;;;;10.17;68.75;99714.91;1696366;83;21229;-78
2021/04/15 05:39:11;;;;;;;44.10;24.57;;;;;;;10.21;68.74;99711.67;1687073;84;21231;-80
2021/04/15 05:42:13;;;;;;;38.78;22.80;;;;;;;10.29;68.65;99712.25;1716415;82;21220;-79
2021/04/15 05:44:54;;;;;;;;;;;;;;;10.33;68.48;99705.94;1738379;82;21559;-80
2021/04/15 05:47:31;;;;;;;50.43;27.07;;;;;;;10.38;68.18;99703.11;1763001;80;20297;-79
2021/04/15 05:50:10;;;;;;;49.18;27.48;;;;;;;10.43;68.12;99696.71;1758725;81;21213;-79
2021/04/15 05:52:47;;;;;;;48.35;27.17;;;;;;;10.53;68.25;99697.16;1759013;81;21194;-80
2021/04/15 05:55:28;;;;;;;45.85;28.02;;;;;;;10.64;68.27;99697.55;1759358;81;21179;-78
2021/04/15 05:58:02;;;;;;;;;;;;;;;10.74;67.91;99693.19;1761526;81;21329;-80
2021/04/15 06:00:41;;;;;;;42.58;27.98;;;;;;;10.79;67.11;99690.76;1760084;81;20285;-79
2021/04/15 06:04:53;;;;;;;39.25;24.95;;;;;;;10.89;66.69;99689.88;1755975;78;28340;-77
2021/04/15 06:07:23;;;;;;;43.38;26.93;;;;;;;10.90;66.98;99683.67;1727797;82;21194;-79
2021/04/15 06:09:51;;;;;;;46.65;27.37;;;;;;;10.97;65.96;99693.47;1732345;82;21813;-79
2021/04/15 06:12:39;;;;;;;48.65;27.22;;;;;;;11.03;66.61;99696.68;1727350;81;21694;-80
2021/04/15 06:15:16;;;;;;;47.80;25.95;;;;;;;11.10;65.77;99694.15;1717236;83;21155;-79
2021/04/15 06:17:58;;;;;;;54.55;27.10;;;;;;;11.18;65.06;99695.57;1714967;83;21226;-79
2021/04/15 06:20:33;;;;;;;47.65;28.42;;;;;;;11.21;65.16;99692.81;1726373;82;21197;-79
2021/04/15 06:23:23;;;;;;;43.83;26.87;;;;;;;11.22;65.17;99691.88;1745912;82;22452;-74
2021/04/15 06:25:52;;;;;;;47.88;28.60;;;;;;;11.25;65.06;99699.62;1704621;82;21159;-74
2021/04/15 06:28:28;;;;;;;50.83;28.30;;;;;;;11.38;65.25;99693.33;1733665;82;21191;-76
2021/04/15 06:31:23;;;;;;;50.33;29.52;;;;;;;11.45;64.68;99700.88;1722905;82;21155;-76
2021/04/15 06:33:53;;;;;;;53.85;30.57;;;;;;;11.51;63.08;99697.95;1720571;82;21633;-77
2021/04/15 06:36:35;;;;;;;49.65;29.92;;;;;;;11.57;63.12;99699.42;1724843;82;21207;-76
2021/04/15 06:39:31;;;;;;;54.98;31.95;;;;;;;11.63;63.40;99699.61;1711187;83;21634;-76
2021/04/15 06:42:36;;;;;;;54.35;32.75;;;;;;;11.71;63.58;99701.40;1708082;82;21214;-70
2021/04/15 06:45:51;;;;;;;53.73;30.30;;;;;;;11.81;62.75;99700.04;1703349;83;21662;-69
2021/04/15 06:48:51;;;;;;;61.33;35.95;;;;;;;11.84;60.90;99697.23;1713280;82;21190;-75
2021/04/15 06:51:33;;;;;;;51.15;31.68;;;;;;;11.88;61.76;99688.75;1703763;83;21217;-72
2021/04/15 06:54:38;;;;;;;55.85;33.33;;;;;;;12.07;62.72;99692.64;1701706;82;21187;-75
2021/04/15 06:57:20;;;;;;;56.10;31.10;;;;;;;12.30;61.92;99689.69;1704009;83;21187;-72
2021/04/15 07:00:03;;;;;;;47.30;30.75;;;;;;;12.50;60.92;99690.47;1712878;83;21216;-74
2021/04/15 07:03:09;;;;;;;43.60;27.48;;;;;;;12.70;60.71;99694.23;1717650;83;21210;-74
2021/04/15 07:06:02;;;;;;;52.67;31.73;;;;;;;12.91;60.43;99691.39;1718375;83;22094;-76
2021/04/15 07:09:28;;;;;;;55.52;31.87;;;;;;;13.14;58.76;99696.28;1714868;83;21230;-76
2021/04/15 07:12:41;;;;;;;49.55;29.90;;;;;;;13.23;57.79;99697.11;1694287;83;21226;-76
2021/04/15 07:16:07;;;;;;;48.50;29.42;;;;;;;13.36;57.38;99696.45;1693881;83;21185;-76
2021/04/15 07:19:05;;;;;;;46.08;28.23;;;;;;;13.50;56.50;99697.00;1668293;85;21721;-76
2021/04/15 07:21:56;;;;;;;42.48;27.00;;;;;;;13.70;56.71;99694.56;1706583;83;21204;-75
2021/04/15 07:25:01;;;;;;;42.27;25.00;;;;;;;13.94;55.54;99693.61;1703286;83;21210;-76
2021/04/15 07:27:50;;;;;;;41.45;26.27;;;;;;;14.12;54.15;99690.38;1700626;83;21268;-76
2021/04/15 07:31:15;;;;;;;39.05;23.70;;;;;;;14.32;52.37;99675.48;1709818;83;21219;-76
2021/04/15 07:34:31;;;;;;;35.38;22.32;;;;;;;14.66;52.56;99688.06;1702471;83;21300;-75
2021/04/15 07:37:39;;;;;;;34.35;19.20;;;;;;;15.05;50.94;99691.86;1700868;83;21235;-76
2021/04/15 07:40:30;;;;;;;30.05;18.77;;;;;;;15.39;49.21;99687.05;1692612;83;21475;-76
2021/04/15 07:43:47;;;;;;;32.88;19.32;;;;;;;15.47;48.04;99690.92;1703084;83;21156;-75
2021/04/15 07:46:37;;;;;;;28.40;17.87;;;;;;;15.64;48.70;99695.13;1700984;83;21167;-75
2021/04/15 07:49:45;;;;;;;27.75;15.78;;;;;;;15.74;46.42;99695.44;1691915;83;21150;-76
2021/04/15 07:52:51;;;;;;;25.50;14.53;;;;;;;15.86;46.96;99690.64;1683842;84;21288;-77
2021/04/15 07:55:42;;;;;;;20.85;13.83;;;;;;;16.04;45.16;99683.75;1703739;83;21618;-75
2021/04/15 07:59:01;;;;;;;24.55;13.62;;;;;;;16.20;45.77;99684.91;1689337;84;21217;-76
2021/04/15 08:02:03;;;;;;;29.50;15.03;;;;;;;16.47;44.87;99684.35;1698677;83;21665;-76
2021/04/15 08:05:24;;;;;;;25.32;12.30;;;;;;;16.75;44.17;99681.11;1695843;83;21205;-76
2021/04/15 08:08:19;;;;;;;21.07;12.88;;;;;;;16.82;42.51;99681.09;1677039;84;21382;-76
2021/04/15 08:11:07;;;;;;;20.68;12.28;;;;;;;16.73;43.61;99681.70;1684229;84;21214;-76
2021/04/15 08:14:01;;;;;;;20.35;12.40;;;;;;;16.69;43.64;99677.55;1676100;85;21167;-76
2021/04/15 08:16:46;;;;;;;20.15;12.50;;;;;;;16.86;43.05;99674.56;1688199;83;21222;-75
2021/04/15 08:20:00;;;;;;;18.15;11.20;;;;;;;17.30;41.92;99674.56;1691756;84;21211;-75
2021/04/15 08:23:05;;;;;;;15.28;11.03;;;;;;;17.70;41.90;99665.47;1685514;84;21279;-76
2021/04/15 08:26:12;;;;;;;16.85;10.95;;;;;;;18.59;40.03;99663.61;1671977;84;21202;-77
2021/04/15 08:29:19;;;;;;;15.48;9.55;;;;;;;19.52;36.87;99662.97;1660113;84;21173;-77
2021/04/15 08:32:10;;;;;;;15.83;9.93;;;;;;;20.07;35.86;99653.08;1702682;83;21168;-76
2021/04/15 08:34:53;;;;;;;13.40;9.43;;;;;;;20.21;34.55;99646.07;1666848;84;21812;-75
2021/04/15 08:37:48;;;;;;;16.95;9.15;;;;;;;20.14;33.38;99652.92;1694599;84;21219;-75
2021/04/15 08:40:48;;;;;;;13.38;8.13;;;;;;;20.12;34.35;99646.85;1695478;82;21216;-74
2021/04/15 08:43:56;;;;;;;15.32;9.78;;;;;;;20.41;33.98;99643.54;1679235;84;21151;-76
2021/04/15 08:46:47;;;;;;;18.82;9.80;;;;;;;20.42;33.63;99645.22;1685107;84;21171;-77
2021/04/15 08:49:37;;;;;;;12.95;9.00;;;;;;;20.06;34.10;99642.01;1689479;83;21191;-75
2021/04/15 08:52:25;;;;;;;16.15;10.03;;;;;;;19.78;34.58;99643.48;1703715;84;21363;-76
2021/04/15 08:55:25;;;;;;;19.30;9.67;;;;;;;19.61;34.14;99640.84;1686851;84;21155;-75
2021/04/15 08:58:20;;;;;;;15.20;9.05;;;;;;;19.25;35.28;99638.86;1692107;84;21172;-76
2021/04/15 09:01:33;;;;;;;18.82;9.40;;;;;;;19.16;35.51;99636.94;1693310;84;22137;-75
2021/04/15 09:04:07;;;;;;;15.90;8.80;;;;;;;19.23;35.42;99635.47;1646430;85;21201;-75
2021/04/15 09:07:15;;;;;;;11.12;8.03;;;;;;;19.54;35.27;99630.31;1693461;83;21949;-77
2021/04/15 09:10:25;;;;;;;16.02;9.05;;;;;;;19.78;34.81;99634.97;1700528;83;21231;-75
2021/04/15 09:13:31;;;;;;;12.00;6.85;;;;;;;20.18;33.90;99626.78;1692398;83;21666;-75
2021/04/15 09:16:21;;;;;;;15.40;8.75;;;;;;;20.85;34.10;99625.48;1698518;83;21205;-74
2021/04/15 09:19:18;;;;;;;19.10;9.45;;;;;;;20.42;32.67;99621.15;1692750;83;21171;-75
2021/04/15 09:22:10;;;;;;;13.98;10.40;;;;;;;19.66;34.06;99621.28;1699398;83;21202;-75
2021/04/15 09:24:47;;;;;;;15.28;9.05;;;;;;;19.43;35.05;99625.84;1696751;83;21207;-75
2021/04/15 09:27:28;;;;;;;14.28;10.25;;;;;;;19.21;35.08;99625.39;1692858;83;21200;-75
2021/04/15 09:30:23;;;;;;;19.52;10.40;;;;;;;18.75;36.25;99623.25;1691983;83;21234;-75
2021/04/15 09:33:07;;;;;;;14.85;9.18;;;;;;;18.26;37.34;99615.55;1694923;83;21127;-75
2021/04/15 09:36:08;;;;;;;11.30;9.33;;;;;;;18.00;36.67;99623.73;1662511;83;21178;-75
2021/04/15 09:39:03;;;;;;;16.10;9.90;;;;;;;17.96;37.39;99616.93;1702389;83;21567;-74
2021/04/15 09:41:50;;;;;;;16.82;9.85;;;;;;;17.73;38.16;99618.14;1690082;83;21218;-75
2021/04/15 09:44:24;;;;;;;20.08;10.70;;;;;;;17.47;39.87;99621.42;1663396;83;21226;-74
2021/04/15 09:47:10;;;;;;;14.38;10.10;;;;;;;17.53;38.38;99626.30;1689322;83;21183;-75
2021/04/15 09:49:52;;;;;;;15.05;10.25;;;;;;;17.70;38.41;99618.88;1695597;83;22216;-75
2021/04/15 09:52:50;;;;;;;21.60;10.38;;;;;;;17.56;37.75;99614.58;1697785;83;21230;-74
2021/04/15 09:55:51;;;;;;;19.10;9.63;;;;;;;17.19;38.70;99622.60;1687709;83;21175;-75
2021/04/15 09:58:29;;;;;;;;;;;;;;;17.10;38.94;99617.95;1697845;83;21674;-74
2021/04/15 10:01:06;;;;;;;15.60;10.70;;;;;;;17.12;39.48;99616.87;1687653;83;20511;-75
2021/04/15 10:04:11;;;;;;;21.85;10.23;;;;;;;17.08;38.98;99615.38;1674560;83;21384;-75
2021/04/15 10:06:54;;;;;;;18.82;11.90;;;;;;;17.15;38.65;99621.11;1690559;83;21203;-75
2021/04/15 10:09:40;;;;;;;16.67;11.97;;;;;;;17.06;39.24;99621.78;1683554;85;21690;-76
2021/04/15 10:12:31;;;;;;;18.57;12.15;;;;;;;16.97;39.10;99613.48;1697419;83;21158;-75
2021/04/15 10:15:35;;;;;;;21.97;11.48;;;;;;;16.83;39.92;99613.63;1697577;83;21186;-75
2021/04/15 10:18:33;;;;;;;17.02;12.45;;;;;;;16.65;39.79;99608.25;1708631;83;21187;-75
2021/04/15 10:21:42;;;;;;;19.82;11.65;;;;;;;16.41;40.03;99610.34;1704589;83;21191;-75
2021/04/15 10:24:49;;;;;;;16.10;9.55;;;;;;;16.33;40.01;99612.67;1700280;83;21186;-74
2021/04/15 10:27:44;;;;;;;17.32;9.45;;;;;;;16.24;39.70;99605.34;1688249;83;21190;-78
2021/04/15 10:30:42;;;;;;;18.70;10.45;;;;;;;15.98;40.04;99609.78;1695101;83;21634;-75
2021/04/15 10:33:34;;;;;;;21.77;11.08;;;;;;;15.80;40.72;99613.20;1709518;83;21222;-75
2021/04/15 10:36:47;;;;;;;13.28;9.38;;;;;;;15.66;41.28;99612.27;1693735;83;21223;-76
2021/04/15 10:39:28;;;;;;;18.57;11.33;;;;;;;15.52;40.93;99609.69;1685766;83;21175;-76
2021/04/15 10:42:43;;;;;;;24.30;10.93;;;;;;;15.42;42.15;99612.58;1685761;83;28240;-76
2021/04/15 10:45:30;;;;;;;21.70;11.43;;;;;;;15.36;44.14;99614.30;1691833;83;21222;-76
2021/04/15 10:48:37;;;;;;;16.02;10.85;;;;;;;15.37;43.06;99612.00;1683728;83;21818;-76
2021/04/15 10:51:24;;;;;;;14.78;10.25;;;;;;;15.39;42.56;99608.78;1676839;83;21187;-77
2021/04/15 10:54:17;;;;;;;21.62;10.98;;;;;;;15.40;44.29;99611.83;1666609;83;21646;-76
2021/04/15 10:56:48;;;;;;;17.20;11.22;;;;;;;15.40;44.80;99611.83;1688204;83;21204;-76
2021/04/15 10:59:28;;;;;;;16.90;10.68;;;;;;;15.44;43.93;99612.01;1705768;83;21589;-76
2021/04/15 11:02:34;;;;;;;21.03;12.40;;;;;;;15.47;42.16;99610.47;1696695;83;22074;-76
2021/04/15 11:05:25;;;;;;;17.98;10.78;;;;;;;15.46;42.69;99607.42;1688418;83;21658;-75
2021/04/15 11:07:58;;;;;;;23.45;10.40;;;;;;;15.40;43.71;99612.67;1708891;83;21610;-79
2021/04/15 11:10:30;;;;;;;20.82;10.35;;;;;;;15.33;43.86;99609.20;1702824;83;21181;-81
2021/04/15 11:13:11;;;;;;;14.45;9.95;;;;;;;15.30;43.40;99615.08;1700172;83;21155;-77
2021/04/15 11:15:44;;;;;;;24.32;11.55;;;;;;;15.30;43.28;99613.75;1702783;83;21208;-81
2021/04/15 11:18:17;;;;;;;18.57;10.95;;;;;;;15.26;43.83;99614.89;1700343;83;21175;-77
2021/04/15 11:20:51;;;;;;;18.37;10.32;;;;;;;15.29;43.83;99612.03;1701934;83;21178;-80
2021/04/15 11:23:26;;;;;;;18.82;10.90;;;;;;;15.34;43.04;99609.56;1698003;83;21166;-84
2021/04/15 11:26:19;;;;;;;18.17;10.23;;;;;;;15.42;44.42;99615.23;1705519;83;21198;-77
2021/04/15 11:28:54;;;;;;;20.52;10.43;;;;;;;15.50;44.67;99610.26;1702477;83;21433;-74
2021/04/15 11:31:39;;;;;;;25.48;10.48;;;;;;;15.57;45.62;99608.05;1699235;83;21222;-77
2021/04/15 11:34:27;;;;;;;14.68;10.32;;;;;;;15.57;44.49;99611.55;1693362;83;21222;-77
2021/04/15 11:37:19;;;;;;;15.32;11.33;;;;;;;15.63;42.49;99603.19;1700460;83;21159;-76
2021/04/15 11:39:47;;;;;;;17.25;10.98;;;;;;;15.71;41.85;99607.56;1709525;83;21681;-74
2021/04/15 11:42:18;;;;;;;18.25;12.37;;;;;;;15.75;41.69;99603.37;1711735;83;21595;-73
2021/04/15 11:44:55;;;;;;;17.95;12.45;;;;;;;15.81;41.77;99604.30;1715390;83;21190;-74
2021/04/15 11:47:29;;;;;;;16.73;9.65;;;;;;;15.87;41.95;99602.53;1713691;83;21224;-75
2021/04/15 11:50:19;;;;;;;21.12;11.00;;;;;;;15.97;44.92;99598.32;1634674;86;21230;-75
2021/04/15 11:52:55;;;;;;;17.87;11.03;;;;;;;16.04;44.41;99599.59;1691440;83;21674;-74
2021/04/15 11:55:32;;;;;;;15.53;10.45;;;;;;;16.14;42.99;99600.66;1698937;83;21383;-74
2021/04/15 11:58:08;;;;;;;15.98;10.78;;;;;;;16.21;42.34;99594.94;1652641;86;21702;-75
2021/04/15 12:00:43;;;;;;;18.25;10.13;;;;;;;16.28;41.79;99592.22;1688825;83;21643;-75
2021/04/15 12:03:17;;;;;;;18.25;9.63;;;;;;;16.26;41.80;99592.80;1671644;83;21615;-75
2021/04/15 12:05:48;;;;;;;15.03;9.98;;;;;;;16.27;43.35;99594.03;1702360;83;21256;-74
2021/04/15 12:08:33;;;;;;;15.58;10.03;;;;;;;16.26;43.51;99590.15;1695409;83;22295;-75
2021/04/15 12:11:27;;;;;;;17.23;9.63;;;;;;;16.21;43.30;99590.95;1705957;83;21230;-74
2021/04/15 12:14:12;;;;;;;16.80;10.82;;;;;;;16.19;41.91;99588.87;1716185;83;21223;-74
2021/04/15 12:17:21;;;;;;;14.45;9.83;;;;;;;16.13;42.11;99593.66;1709614;83;21358;-74
2021/04/15 12:20:01;;;;;;;14.83;10.50;;;;;;;16.13;42.02;99593.66;1715881;83;21175;-74
2021/04/15 12:22:57;;;;;;;18.07;9.85;;;;;;;15.93;44.14;99588.85;1717173;83;22455;-75
2021/04/15 12:25:47;;;;;;;17.10;10.95;;;;;;;15.80;44.69;99594.61;1711308;83;21138;-76
2021/04/15 12:28:32;;;;;;;21.30;11.22;;;;;;;15.65;44.31;99594.66;1709748;83;21223;-74
2021/04/15 12:31:25;;;;;;;17.23;11.20;;;;;;;15.51;44.74;99593.40;1835439;76;22716;-76
2021/04/15 12:34:12;;;;;;;23.15;11.40;;;;;;;15.31;45.41;99591.56;1798791;78;21629;-75
2021/04/15 12:37:06;;;;;;;17.73;11.03;;;;;;;15.23;46.67;99599.19;1793518;79;21326;-76
2021/04/15 12:40:02;;;;;;;16.67;11.63;;;;;;;15.09;46.47;99605.83;1777271;80;21194;-75
2021/04/15 12:42:35;;;;;;;24.37;12.20;;;;;;;14.85;46.95;99601.62;1773655;80;21127;-74
2021/04/15 12:45:06;;;;;;;28.70;13.62;;;;;;;14.74;48.07;99608.91;1782861;80;21196;-75